Time;durP1;ratioP1;P1;durP2;ratioP2;P2;SDS_P1;SDS_P2;PMS_P1;PMS_P2;Temp;Humidity;BMP_temperature;BMP_pressure;BME280_temperature;BME280_humidity;BME280_pressure;Samples;Min_cycle;Max_cycle;Signal;HPM_P1;HPM_P2
2024/01/28 00:00:17;;;;;;;11.10;5.13;;;0.10;99.90;;;;;;5031909;28;20225;-73
2024/01/28 00:02:42;;;;;;;7.20;3.80;;;0.20;99.90;;;;;;5032017;28;20499;-73
2024/01/28 00:05:11;;;;;;;17.03;4.70;;;0.30;99.90;;;;;;5031705;28;20441;-72
2024/01/28 00:07:37;;;;;;;7.13;4.00;;;0.30;99.90;;;;;;5032382;28;20179;-73
2024/01/28 00:10:03;;;;;;;21.73;6.50;;;0.30;99.90;;;;;;5032391;28;20815;-72
2024/01/28 00:12:28;;;;;;;9.60;4.10;;;0.50;99.90;;;;;;5032556;28;20194;-73
2024/01/28 00:14:54;;;;;;;12.33;4.50;;;0.50;99.90;;;;;;5032101;28;20237;-73
2024/01/28 00:17:19;;;;;;;15.77;5.50;;;0.50;99.90;;;;;;5032391;28;20185;-73
2024/01/28 00:19:45;;;;;;;14.30;5.90;;;0.50;99.90;;;;;;5031934;28;20670;-73
2024/01/28 00:22:10;;;;;;;12.60;5.43;;;0.40;99.90;;;;;;5032001;28;20280;-73
2024/01/28 00:24:36;;;;;;;14.00;5.63;;;0.30;99.90;;;;;;5032089;28;20277;-73
2024/01/28 00:27:01;;;;;;;9.87;4.50;;;0.20;99.90;;;;;;5022555;28;20198;-72
2024/01/28 00:29:30;;;;;;;11.40;5.23;;;0.10;99.90;;;;;;5031922;28;20225;-73
2024/01/28 00:31:56;;;;;;;18.20;5.80;;;0.10;99.90;;;;;;5031203;28;20269;-73
2024/01/28 00:34:22;;;;;;;9.60;4.57;;;0.10;99.90;;;;;;5031463;28;20920;-73
2024/01/28 00:36:48;;;;;;;9.73;4.47;;;0.00;99.90;;;;;;5031836;28;20432;-72
2024/01/28 00:39:13;;;;;;;12.43;4.87;;;-0.10;99.90;;;;;;5032049;28;20186;-73
2024/01/28 00:41:39;;;;;;;9.37;4.77;;;-0.10;99.90;;;;;;5032058;28;20479;-73
2024/01/28 00:44:05;;;;;;;9.67;4.27;;;-0.10;99.90;;;;;;5040485;28;20185;-73
2024/01/28 00:46:32;;;;;;;11.90;4.37;;;-0.20;99.90;;;;;;5031753;28;20174;-72
2024/01/28 00:48:58;;;;;;;10.80;4.57;;;-0.20;99.90;;;;;;5031576;28;20753;-72
2024/01/28 00:51:23;;;;;;;12.17;4.40;;;-0.20;99.90;;;;;;5031953;28;20462;-72
2024/01/28 00:53:49;;;;;;;12.47;4.67;;;-0.20;99.90;;;;;;5031823;28;20193;-73
2024/01/28 00:56:16;;;;;;;9.37;4.57;;;-0.20;99.90;;;;;;5034563;28;20194;-73
2024/01/28 00:58:42;;;;;;;8.40;4.70;;;-0.20;99.90;;;;;;5035842;28;20173;-73
2024/01/28 01:01:08;;;;;;;12.43;4.47;;;-0.40;99.90;;;;;;5035325;28;20982;-73
2024/01/28 01:03:33;;;;;;;9.43;4.40;;;-0.50;99.90;;;;;;5035252;28;20429;-73
2024/01/28 01:05:59;;;;;;;9.80;4.60;;;-0.50;99.90;;;;;;5035529;28;20182;-72
2024/01/28 01:08:25;;;;;;;6.80;4.53;;;-0.60;99.90;;;;;;5035825;28;20273;-72
2024/01/28 01:10:50;;;;;;;15.67;6.10;;;-0.60;99.90;;;;;;5035770;28;20190;-73
2024/01/28 01:13:16;;;;;;;12.53;5.80;;;-0.60;99.90;;;;;;5035889;28;20210;-72
2024/01/28 01:15:41;;;;;;;15.93;5.77;;;-0.70;99.90;;;;;;5035984;28;20583;-72
2024/01/28 01:18:07;;;;;;;10.80;5.17;;;-0.80;99.90;;;;;;5035334;28;20205;-73
2024/01/28 01:20:33;;;;;;;8.93;4.50;;;-0.80;99.90;;;;;;5034567;28;20657;-73
2024/01/28 01:22:59;;;;;;;9.93;5.77;;;-0.90;99.90;;;;;;5035435;28;20182;-73
2024/01/28 01:25:24;;;;;;;10.87;4.90;;;-0.90;99.90;;;;;;5035485;28;20413;-73
2024/01/28 01:27:52;;;;;;;10.90;4.90;;;-0.90;99.90;;;;;;5035529;28;20266;-73
2024/01/28 01:30:18;;;;;;;13.20;4.70;;;-0.90;99.90;;;;;;5035400;28;20218;-73
2024/01/28 01:32:43;;;;;;;9.57;4.50;;;-0.90;99.90;;;;;;5035145;28;20471;-73
2024/01/28 01:35:13;;;;;;;10.00;4.93;;;-1.10;99.90;;;;;;5035167;28;20190;-73
2024/01/28 01:37:39;;;;;;;13.03;5.40;;;-1.20;99.90;;;;;;5034804;28;20189;-73
2024/01/28 01:40:06;;;;;;;12.20;5.20;;;-1.20;99.90;;;;;;5035324;28;20425;-73
2024/01/28 01:42:31;;;;;;;12.10;6.33;;;-1.20;99.90;;;;;;5035052;28;20604;-73
2024/01/28 01:44:57;;;;;;;13.33;5.13;;;-1.20;99.90;;;;;;5042191;28;20432;-73
2024/01/28 01:47:23;;;;;;;8.40;4.50;;;-1.30;99.90;;;;;;5034928;28;20181;-73
2024/01/28 01:49:48;;;;;;;10.13;5.43;;;-1.40;99.90;;;;;;5034626;28;20197;-73
2024/01/28 01:52:16;;;;;;;6.03;3.60;;;-1.40;99.90;;;;;;5033750;28;20482;-73
2024/01/28 01:54:43;;;;;;;12.53;4.43;;;-1.30;99.90;;;;;;5034893;28;20686;-73
2024/01/28 01:57:10;;;;;;;11.43;3.90;;;-1.30;99.90;;;;;;5035121;28;20905;-72
2024/01/28 01:59:37;;;;;;;8.53;4.10;;;-1.30;99.90;;;;;;5030966;28;20503;-73
2024/01/28 02:02:07;;;;;;;7.70;4.00;;;-1.30;99.90;;;;;;5029990;28;20476;-73
2024/01/28 02:04:33;;;;;;;13.10;3.03;;;-1.30;99.90;;;;;;5034378;28;20461;-73
2024/01/28 02:06:59;;;;;;;8.87;3.80;;;-1.30;99.90;;;;;;5033882;28;20836;-73
2024/01/28 02:09:24;;;;;;;9.97;3.50;;;-1.30;99.90;;;;;;5034324;28;20186;-73
2024/01/28 02:11:50;;;;;;;9.73;4.20;;;-1.30;99.90;;;;;;5034545;28;20187;-73
2024/01/28 02:14:28;;;;;;;8.57;4.27;;;-1.30;99.90;;;;;;5034438;28;20270;-73
2024/01/28 02:16:59;;;;;;;8.83;4.00;;;-1.30;99.90;;;;;;5034650;28;20635;-73
2024/01/28 02:19:25;;;;;;;8.40;4.27;;;-1.20;99.90;;;;;;5033170;28;20464;-73
2024/01/28 02:21:51;;;;;;;8.07;3.90;;;-1.10;99.90;;;;;;5034118;28;20993;-73
2024/01/28 02:24:16;;;;;;;7.83;3.73;;;-1.10;99.90;;;;;;5034399;28;20491;-73
2024/01/28 02:26:42;;;;;;;12.27;4.30;;;-1.10;99.90;;;;;;5034674;28;20257;-73
2024/01/28 02:29:07;;;;;;;14.87;4.10;;;-1.10;99.90;;;;;;5034062;28;20309;-73
2024/01/28 02:31:33;;;;;;;6.83;3.83;;;-1.00;99.90;;;;;;5034513;28;20634;-73
2024/01/28 02:33:59;;;;;;;8.83;3.80;;;-1.00;99.90;;;;;;5033784;28;20269;-73
2024/01/28 02:36:29;;;;;;;7.43;3.67;;;-1.00;99.90;;;;;;5033750;28;20285;-73
2024/01/28 02:38:54;;;;;;;6.80;3.70;;;-0.90;99.90;;;;;;5034238;28;20790;-73
2024/01/28 02:41:20;;;;;;;10.23;5.13;;;-0.90;99.90;;;;;;5033991;28;20469;-73
2024/01/28 02:43:46;;;;;;;12.93;4.87;;;-0.90;99.90;;;;;;5042609;28;20184;-73
2024/01/28 02:46:13;;;;;;;5.80;3.17;;;-0.90;99.90;;;;;;5037105;28;20258;-73
2024/01/28 02:48:38;;;;;;;6.40;4.00;;;-0.90;99.90;;;;;;5033792;28;20217;-72
2024/01/28 02:51:04;;;;;;;13.03;3.87;;;-1.10;99.90;;;;;;5032739;28;20448;-72
2024/01/28 02:53:29;;;;;;;12.07;4.67;;;-1.20;99.90;;;;;;5034050;28;20247;-72
2024/01/28 02:55:59;;;;;;;12.10;4.10;;;-1.30;99.90;;;;;;5033830;28;20265;-73
2024/01/28 02:58:25;;;;;;;7.57;3.97;;;-1.30;99.90;;;;;;5033738;28;20193;-73
2024/01/28 03:00:50;;;;;;;8.63;3.80;;;-1.30;99.90;;;;;;5033632;28;20429;-73
2024/01/28 03:03:16;;;;;;;10.50;4.33;;;-1.30;99.90;;;;;;5033363;28;20183;-73
2024/01/28 03:05:42;;;;;;;7.20;3.63;;;-1.30;99.90;;;;;;5033269;28;20189;-73
2024/01/28 03:08:07;;;;;;;10.40;4.23;;;-1.30;99.90;;;;;;5033584;28;20183;-73
2024/01/28 03:10:33;;;;;;;10.83;4.33;;;-1.30;99.90;;;;;;5033471;28;20227;-73
2024/01/28 03:12:58;;;;;;;7.90;3.83;;;-1.30;99.90;;;;;;5033596;28;20554;-73
2024/01/28 03:15:24;;;;;;;7.53;3.07;;;-1.40;99.90;;;;;;5033661;28;20186;-73
2024/01/28 03:17:49;;;;;;;4.17;2.63;;;-1.40;99.90;;;;;;5033122;28;20191;-73
2024/01/28 03:20:17;;;;;;;12.83;4.57;;;-1.60;99.90;;;;;;5032067;28;20190;-73
2024/01/28 03:22:43;;;;;;;8.90;3.37;;;-1.60;99.90;;;;;;5033194;28;20293;-73
2024/01/28 03:25:08;;;;;;;5.33;2.73;;;-1.50;99.90;;;;;;5033276;28;20516;-73
2024/01/28 03:27:34;;;;;;;10.73;3.80;;;-1.50;99.90;;;;;;5033222;28;20182;-73
2024/01/28 03:30:00;;;;;;;6.33;3.53;;;-1.50;99.90;;;;;;5032859;28;20226;-73
2024/01/28 03:32:25;;;;;;;7.43;3.80;;;-1.50;99.90;;;;;;5033296;28;20178;-73
2024/01/28 03:34:51;;;;;;;6.33;3.03;;;-1.50;99.90;;;;;;5032732;28;20264;-73
2024/01/28 03:37:16;;;;;;;8.53;3.03;;;-1.50;99.90;;;;;;5032822;28;20200;-73
2024/01/28 03:39:42;;;;;;;8.13;3.00;;;-1.60;99.90;;;;;;5032978;28;20631;-73
2024/01/28 03:42:08;;;;;;;7.60;3.90;;;-1.60;99.90;;;;;;5034019;28;20202;-73
2024/01/28 03:44:34;;;;;;;9.90;3.57;;;-1.60;99.90;;;;;;5042104;28;20174;-73
2024/01/28 03:46:59;;;;;;;11.00;4.40;;;-1.60;99.90;;;;;;5032994;28;20413;-73
2024/01/28 03:49:25;;;;;;;7.53;3.23;;;-1.60;99.90;;;;;;5032266;28;20281;-73
2024/01/28 03:51:50;;;;;;;8.30;3.77;;;-1.60;99.90;;;;;;5030901;28;20190;-73
2024/01/28 03:54:16;;;;;;;7.37;3.30;;;-1.70;99.90;;;;;;5032508;28;20237;-73
2024/01/28 03:56:41;;;;;;;5.30;3.40;;;-1.80;99.90;;;;;;5032719;28;20262;-73
2024/01/28 03:59:07;;;;;;;7.07;3.43;;;-1.80;99.90;;;;;;5032431;28;20195;-73
2024/01/28 04:01:33;;;;;;;6.10;3.67;;;-1.70;99.90;;;;;;5032392;28;20198;-73
2024/01/28 04:03:59;;;;;;;7.37;3.80;;;-1.70;99.90;;;;;;5032085;28;20179;-73
2024/01/28 04:06:25;;;;;;;4.77;2.83;;;-1.70;99.90;;;;;;5032146;28;20504;-73
2024/01/28 04:08:54;;;;;;;7.57;3.43;;;-1.70;99.90;;;;;;5032456;28;20178;-73
2024/01/28 04:11:23;;;;;;;5.93;2.80;;;-1.70;99.90;;;;;;5032419;28;20936;-73
2024/01/28 04:13:48;;;;;;;10.20;3.70;;;-1.70;99.90;;;;;;5032394;28;20436;-73
2024/01/28 04:16:14;;;;;;;11.73;4.20;;;-1.80;99.90;;;;;;5032503;28;20429;-72
2024/01/28 04:18:39;;;;;;;14.60;3.73;;;-1.80;99.90;;;;;;5033063;28;20321;-73
2024/01/28 04:21:05;;;;;;;10.33;4.13;;;-1.90;99.90;;;;;;5030805;28;20206;-73
2024/01/28 04:23:30;;;;;;;6.87;4.10;;;-2.00;99.90;;;;;;5032365;28;20190;-73
2024/01/28 04:25:56;;;;;;;9.27;3.40;;;-1.90;99.90;;;;;;5032481;28;20193;-73
2024/01/28 04:28:23;;;;;;;10.13;4.40;;;-1.80;99.90;;;;;;5032087;28;20182;-73
2024/01/28 04:30:49;;;;;;;11.67;3.73;;;-1.80;99.90;;;;;;5031508;28;20209;-73
2024/01/28 04:33:15;;;;;;;7.57;3.47;;;-1.80;99.90;;;;;;5031789;28;20423;-73
2024/01/28 04:35:40;;;;;;;10.63;3.93;;;-1.80;99.90;;;;;;5031919;28;20542;-73
2024/01/28 04:38:06;;;;;;;4.43;2.33;;;-1.80;99.90;;;;;;5031610;28;20217;-73
2024/01/28 04:40:31;;;;;;;8.73;2.93;;;-1.80;99.90;;;;;;5032174;28;20290;-73
2024/01/28 04:42:57;;;;;;;8.90;3.60;;;-1.80;99.90;;;;;;5035415;28;20225;-73
2024/01/28 04:45:22;;;;;;;7.57;3.03;;;-1.90;99.90;;;;;;5038528;28;20185;-73
2024/01/28 04:47:47;;;;;;;4.70;2.83;;;-2.00;99.90;;;;;;5031719;28;20559;-72
2024/01/28 04:50:13;;;;;;;7.77;3.00;;;-2.00;99.90;;;;;;5032300;28;20262;-73
2024/01/28 04:52:39;;;;;;;8.37;2.83;;;-1.90;99.90;;;;;;5030827;28;20645;-73
2024/01/28 04:55:04;;;;;;;7.97;3.10;;;-1.90;99.90;;;;;;5014330;28;20643;-73
2024/01/28 04:57:30;;;;;;;5.03;3.00;;;-2.00;99.90;;;;;;5031940;28;20309;-72
2024/01/28 04:59:56;;;;;;;5.87;3.27;;;-2.10;99.90;;;;;;5032261;28;20233;-73
2024/01/28 05:02:21;;;;;;;8.93;3.37;;;-2.20;99.90;;;;;;5031490;28;20225;-73
2024/01/28 05:04:46;;;;;;;4.43;2.90;;;-2.20;99.90;;;;;;5031565;28;20182;-73
2024/01/28 05:07:13;;;;;;;5.63;3.33;;;-2.10;99.90;;;;;;5031478;28;20253;-73
2024/01/28 05:09:39;;;;;;;5.70;3.20;;;-2.10;99.90;;;;;;5031724;28;20178;-73
2024/01/28 05:12:05;;;;;;;7.40;3.30;;;-2.10;99.90;;;;;;5031185;28;20452;-73
2024/01/28 05:14:30;;;;;;;7.87;3.73;;;-2.10;99.90;;;;;;5031686;28;20183;-73
2024/01/28 05:16:58;;;;;;;9.10;4.47;;;-2.10;99.90;;;;;;5031716;28;20429;-73
2024/01/28 05:19:23;;;;;;;7.70;3.93;;;-2.20;99.90;;;;;;5030347;28;20271;-73
2024/01/28 05:21:50;;;;;;;11.83;3.47;;;-2.10;99.90;;;;;;5031181;28;20937;-73
2024/01/28 05:24:16;;;;;;;4.93;3.10;;;-2.00;99.90;;;;;;5031612;28;20631;-73
2024/01/28 05:26:42;;;;;;;7.10;3.33;;;-2.00;99.90;;;;;;5031578;28;20420;-73
2024/01/28 05:29:08;;;;;;;5.27;2.90;;;-2.00;99.90;;;;;;5031259;28;20214;-73
2024/01/28 05:31:33;;;;;;;4.10;2.80;;;-1.90;99.90;;;;;;5031643;28;20447;-73
2024/01/28 05:34:02;;;;;;;13.10;4.17;;;-2.00;99.90;;;;;;5030506;28;20217;-73
2024/01/28 05:36:28;;;;;;;4.53;2.40;;;-2.00;99.90;;;;;;5031284;28;20186;-73
2024/01/28 05:38:57;;;;;;;3.93;2.50;;;-2.10;99.90;;;;;;5031151;28;20432;-73
2024/01/28 05:41:23;;;;;;;7.33;3.43;;;-2.10;99.90;;;;;;5031178;28;20496;-73
2024/01/28 05:43:49;;;;;;;7.10;2.93;;;-2.10;99.90;;;;;;5039012;28;20416;-73
2024/01/28 05:46:14;;;;;;;7.30;3.37;;;-2.10;99.90;;;;;;5037861;28;20179;-73
2024/01/28 05:48:39;;;;;;;12.47;2.93;;;-2.10;99.90;;;;;;5034122;28;20220;-73
2024/01/28 05:51:05;;;;;;;10.53;4.00;;;-2.10;99.90;;;;;;5035044;28;20273;-73
2024/01/28 05:53:30;;;;;;;7.70;3.20;;;-2.20;99.90;;;;;;5034940;28;20580;-73
2024/01/28 05:55:56;;;;;;;4.90;2.00;;;-2.20;99.90;;;;;;5034910;28;20182;-73
2024/01/28 05:58:22;;;;;;;5.93;2.57;;;-2.30;99.90;;;;;;5034921;28;20189;-73
2024/01/28 06:00:48;;;;;;;8.17;3.50;;;-2.20;99.90;;;;;;5034813;28;20519;-73
2024/01/28 06:03:14;;;;;;;7.30;3.50;;;-2.20;99.90;;;;;;5034660;28;20409;-73
2024/01/28 06:05:40;;;;;;;6.20;3.17;;;-2.20;99.90;;;;;;5035199;28;20537;-73
2024/01/28 06:08:07;;;;;;;9.87;3.10;;;-2.20;99.90;;;;;;5034568;28;20209;-73
2024/01/28 06:10:32;;;;;;;5.70;2.90;;;-2.30;99.90;;;;;;5034153;28;20575;-72
2024/01/28 06:12:58;;;;;;;6.17;3.10;;;-2.40;99.90;;;;;;5034650;28;20425;-73
2024/01/28 06:15:23;;;;;;;7.17;2.80;;;-2.50;99.90;;;;;;5034848;28;20212;-73
2024/01/28 06:17:49;;;;;;;7.10;3.17;;;-2.50;99.90;;;;;;5034278;28;20210;-73
2024/01/28 06:20:14;;;;;;;15.00;3.90;;;-2.40;99.90;;;;;;5033321;28;20609;-73
2024/01/28 06:22:40;;;;;;;5.93;3.63;;;-2.40;99.90;;;;;;5034197;28;20256;-73
2024/01/28 06:25:07;;;;;;;9.30;3.37;;;-2.30;99.90;;;;;;5034407;28;20193;-73
2024/01/28 06:27:32;;;;;;;4.57;3.20;;;-2.30;99.90;;;;;;5034584;28;20186;-73
2024/01/28 06:29:58;;;;;;;10.33;5.03;;;-2.30;99.90;;;;;;5034170;28;20457;-73
2024/01/28 06:32:24;;;;;;;14.50;4.00;;;-2.30;99.90;;;;;;5034440;28;20236;-73
2024/01/28 06:34:50;;;;;;;6.20;4.00;;;-2.30;99.90;;;;;;5034124;28;20187;-74
2024/01/28 06:37:15;;;;;;;4.90;2.83;;;-2.30;99.90;;;;;;5034120;28;20433;-73
2024/01/28 06:39:41;;;;;;;9.33;3.67;;;-2.30;99.90;;;;;;5033756;28;20182;-73
2024/01/28 06:42:08;;;;;;;8.70;4.73;;;-2.40;99.90;;;;;;5035204;28;20237;-73
2024/01/28 06:44:33;;;;;;;14.90;5.77;;;-2.30;99.90;;;;;;5041631;28;20417;-74
2024/01/28 06:46:59;;;;;;;12.67;6.80;;;-2.30;99.90;;;;;;5034072;28;20413;-73
2024/01/28 06:49:25;;;;;;;12.00;6.43;;;-2.30;99.90;;;;;;5031526;28;20526;-73
2024/01/28 06:51:51;;;;;;;14.73;5.83;;;-2.30;99.90;;;;;;5034061;28;20190;-73
2024/01/28 06:54:18;;;;;;;13.53;4.93;;;-2.30;99.90;;;;;;5033368;28;20943;-73
2024/01/28 06:56:44;;;;;;;10.37;5.53;;;-2.30;99.90;;;;;;5033821;28;20312;-73
2024/01/28 06:59:10;;;;;;;9.97;6.10;;;-2.40;99.90;;;;;;5033874;28;20528;-73
2024/01/28 07:01:35;;;;;;;10.23;5.77;;;-2.30;99.90;;;;;;5033626;28;20492;-73
2024/01/28 07:04:01;;;;;;;12.73;6.10;;;-2.30;99.90;;;;;;5032192;28;20178;-74
2024/01/28 07:06:26;;;;;;;16.13;7.17;;;-2.40;99.90;;;;;;5033381;28;20658;-73
2024/01/28 07:08:52;;;;;;;25.43;6.10;;;-2.40;99.90;;;;;;5032809;28;20297;-73
2024/01/28 07:11:17;;;;;;;9.20;6.00;;;-2.40;99.90;;;;;;5033067;28;20316;-73
2024/01/28 07:13:43;;;;;;;11.60;5.50;;;-2.40;99.90;;;;;;5032718;28;20209;-74
2024/01/28 07:16:10;;;;;;;7.70;4.23;;;-2.40;99.90;;;;;;5033105;28;20269;-74
2024/01/28 07:18:36;;;;;;;5.37;3.10;;;-2.40;99.90;;;;;;5032447;28;20706;-73
2024/01/28 07:21:02;;;;;;;7.27;3.40;;;-2.30;99.90;;;;;;5032846;28;20426;-73
2024/01/28 07:23:28;;;;;;;11.50;4.60;;;-2.00;99.90;;;;;;5032827;28;20182;-73
2024/01/28 07:25:54;;;;;;;10.40;5.30;;;-2.00;99.90;;;;;;5032506;28;20506;-74
2024/01/28 07:28:19;;;;;;;18.10;6.67;;;-1.90;99.90;;;;;;5032730;28;20332;-73
2024/01/28 07:30:44;;;;;;;18.27;6.97;;;-1.90;99.90;;;;;;5032210;28;20218;-73
2024/01/28 07:33:11;;;;;;;18.03;7.77;;;-1.80;99.90;;;;;;5031330;28;20190;-74
2024/01/28 07:35:36;;;;;;;8.83;4.63;;;-1.80;99.90;;;;;;5032168;28;20284;-74
2024/01/28 07:38:03;;;;;;;9.93;5.13;;;-1.90;99.90;;;;;;5032137;28;20785;-73
2024/01/28 07:40:29;;;;;;;7.80;4.70;;;-1.80;99.90;;;;;;5032065;28;20182;-73
2024/01/28 07:42:55;;;;;;;15.60;5.40;;;-1.80;99.90;;;;;;5032322;28;20472;-73
2024/01/28 07:45:21;;;;;;;7.17;3.97;;;-1.80;99.90;;;;;;5038802;28;20175;-73
2024/01/28 07:47:46;;;;;;;5.90;3.40;;;-1.70;99.90;;;;;;5031817;28;20409;-73
2024/01/28 07:50:12;;;;;;;9.77;4.20;;;-1.60;99.90;;;;;;5032331;28;20179;-73
2024/01/28 07:52:38;;;;;;;8.10;4.40;;;-1.60;99.90;;;;;;5032149;28;20186;-72
2024/01/28 07:55:04;;;;;;;5.20;3.30;;;-1.50;99.90;;;;;;5032289;28;20186;-72
2024/01/28 07:57:29;;;;;;;15.27;5.27;;;-1.50;99.90;;;;;;5032105;28;20274;-72
2024/01/28 07:59:55;;;;;;;9.43;4.07;;;-1.40;99.90;;;;;;5031963;28;20654;-73
2024/01/28 08:02:20;;;;;;;10.77;6.47;;;-1.40;99.90;;;;;;5032265;28;20281;-73
2024/01/28 08:04:46;;;;;;;15.83;6.10;;;-1.30;99.90;;;;;;5030746;28;20187;-73
2024/01/28 08:07:12;;;;;;;15.63;6.57;;;-1.30;99.90;;;;;;5032479;28;20174;-73
2024/01/28 08:09:37;;;;;;;15.27;7.30;;;-1.20;99.90;;;;;;5032204;28;20417;-73
2024/01/28 08:12:04;;;;;;;11.97;6.70;;;-1.00;99.90;;;;;;5032053;28;20182;-73
2024/01/28 08:14:29;;;;;;;11.37;5.37;;;-0.80;99.90;;;;;;5032212;28;20223;-73
2024/01/28 08:16:55;;;;;;;11.00;5.13;;;-0.60;99.90;;;;;;5032242;28;20523;-73
2024/01/28 08:19:21;;;;;;;9.83;4.33;;;-0.50;99.90;;;;;;5032139;28;20192;-72
2024/01/28 08:21:47;;;;;;;5.33;3.03;;;-0.40;99.90;;;;;;5032205;28;20472;-72
2024/01/28 08:24:13;;;;;;;6.37;4.13;;;-0.30;99.90;;;;;;5032156;28;20268;-72
2024/01/28 08:26:38;;;;;;;4.17;3.30;;;-0.10;99.90;;;;;;5031616;28;20504;-72
2024/01/28 08:29:04;;;;;;;6.20;3.63;;;0.20;99.90;;;;;;5031903;28;20271;-72
2024/01/28 08:31:30;;;;;;;24.17;4.37;;;0.50;99.90;;;;;;5021970;28;20183;-72
2024/01/28 08:33:55;;;;;;;13.83;6.40;;;0.90;99.90;;;;;;5031722;28;20194;-72
2024/01/28 08:36:21;;;;;;;16.70;8.37;;;1.00;99.90;;;;;;5031649;28;20440;-72
2024/01/28 08:38:46;;;;;;;21.20;10.13;;;1.30;99.90;;;;;;5031388;28;20186;-72
2024/01/28 08:41:12;;;;;;;11.90;6.07;;;1.50;99.90;;;;;;5031292;28;20240;-72
2024/01/28 08:43:38;;;;;;;10.27;4.50;;;1.70;99.90;;;;;;5034769;28;20272;-72
2024/01/28 08:46:03;;;;;;;9.77;4.37;;;2.10;99.90;;;;;;5033755;28;20191;-72
2024/01/28 08:48:29;;;;;;;7.20;2.97;;;2.40;99.90;;;;;;5031451;28;20182;-72
2024/01/28 08:50:55;;;;;;;5.30;3.30;;;2.80;99.90;;;;;;5031281;28;20236;-72
2024/01/28 08:53:21;;;;;;;4.20;2.47;;;3.20;99.90;;;;;;5031672;28;20896;-72
2024/01/28 08:55:46;;;;;;;3.13;2.13;;;3.70;99.90;;;;;;5031386;28;20214;-73
2024/01/28 08:58:12;;;;;;;8.80;3.90;;;3.90;99.90;;;;;;5031456;28;20209;-73
2024/01/28 09:00:39;;;;;;;8.47;4.03;;;4.40;99.90;;;;;;5031034;28;20261;-72
2024/01/28 09:03:04;;;;;;;6.80;3.30;;;4.60;99.90;;;;;;5022124;28;20199;-73
2024/01/28 09:05:30;;;;;;;3.70;2.33;;;4.90;99.90;;;;;;5031351;28;20463;-73
2024/01/28 09:07:56;;;;;;;4.43;2.57;;;5.10;99.90;;;;;;5031648;28;20205;-72
2024/01/28 09:10:23;;;;;;;5.33;2.13;;;5.10;99.90;;;;;;5031327;28;20186;-73
2024/01/28 09:12:48;;;;;;;4.20;2.07;;;5.20;99.90;;;;;;5030996;28;20560;-73
2024/01/28 09:15:14;;;;;;;2.60;1.47;;;5.30;99.90;;;;;;5031668;28;20504;-73
2024/01/28 09:17:41;;;;;;;3.83;1.47;;;5.50;99.90;;;;;;5034404;28;20206;-73
2024/01/28 09:20:07;;;;;;;3.83;1.60;;;5.50;99.90;;;;;;5035458;28;20432;-72
2024/01/28 09:22:35;;;;;;;4.70;1.77;;;5.20;99.90;;;;;;5035681;28;20457;-72
2024/01/28 09:25:03;;;;;;;6.33;2.87;;;5.00;99.90;;;;;;5035976;28;20420;-72
2024/01/28 09:27:29;;;;;;;9.53;3.90;;;5.10;99.90;;;;;;5035825;28;20870;-72
2024/01/28 09:29:54;;;;;;;11.73;4.57;;;5.10;99.90;;;;;;5035404;28;20464;-72
2024/01/28 09:32:20;;;;;;;5.67;3.00;;;5.10;99.90;;;;;;5034129;28;20680;-72
2024/01/28 09:34:45;;;;;;;4.57;2.63;;;5.00;99.90;;;;;;5035079;28;20240;-72
2024/01/28 09:37:11;;;;;;;7.93;2.47;;;4.90;99.90;;;;;;5034722;28;20182;-72
2024/01/28 09:39:36;;;;;;;11.37;2.80;;;5.00;99.90;;;;;;5035222;28;20182;-71
2024/01/28 09:42:30;;;;;;;4.83;2.27;;;5.00;99.90;;;;;;5034976;28;20202;-72
2024/01/28 09:44:58;;;;;;;9.67;2.90;;;5.30;99.90;;;;;;5021035;28;20202;-71
2024/01/28 09:47:24;;;;;;;8.13;3.00;;;5.40;99.90;;;;;;5035027;28;20433;-71
2024/01/28 09:49:50;;;;;;;5.07;2.80;;;5.40;99.90;;;;;;5035059;28;20459;-71
2024/01/28 09:52:16;;;;;;;5.60;2.83;;;5.40;99.90;;;;;;5034547;28;20866;-71
2024/01/28 09:54:44;;;;;;;6.20;2.43;;;5.30;99.90;;;;;;5035172;28;20274;-71
2024/01/28 09:57:11;;;;;;;5.20;2.50;;;5.20;99.90;;;;;;5034694;28;20421;-71
2024/01/28 09:59:37;;;;;;;3.40;2.20;;;5.20;99.90;;;;;;5034837;28;20425;-72
2024/01/28 10:02:04;;;;;;;3.23;1.63;;;5.40;99.90;;;;;;5034348;28;20449;-71
2024/01/28 10:04:30;;;;;;;2.53;1.57;;;5.30;99.90;;;;;;5034834;28;20440;-71
2024/01/28 10:06:58;;;;;;;2.80;1.60;;;5.40;99.80;;;;;;5034667;28;20772;-71
2024/01/28 10:09:24;;;;;;;10.40;1.73;;;5.40;99.90;;;;;;5034770;28;20417;-71
2024/01/28 10:11:51;;;;;;;3.27;1.67;;;5.50;99.90;;;;;;5034282;28;20771;-71
2024/01/28 10:14:17;;;;;;;2.97;1.73;;;5.60;99.90;;;;;;5034613;28;20425;-71
2024/01/28 10:16:45;;;;;;;5.83;1.93;;;5.70;99.90;;;;;;5034246;28;20478;-71
2024/01/28 10:19:11;;;;;;;3.63;1.80;;;5.70;99.90;;;;;;5034317;28;20425;-71
2024/01/28 10:21:36;;;;;;;3.80;2.00;;;5.90;99.80;;;;;;5034202;28;20523;-71
2024/01/28 10:24:02;;;;;;;5.33;1.50;;;6.00;99.80;;;;;;5034529;28;20179;-71
2024/01/28 10:26:28;;;;;;;3.27;1.63;;;6.10;99.70;;;;;;5034181;28;20182;-71
2024/01/28 10:28:53;;;;;;;3.00;1.13;;;6.40;99.20;;;;;;5033188;28;20182;-71
2024/01/28 10:31:22;;;;;;;3.33;1.37;;;6.60;98.90;;;;;;5033459;28;20557;-71
2024/01/28 10:33:49;;;;;;;2.90;1.47;;;6.80;98.90;;;;;;5034022;28;20202;-71
2024/01/28 10:36:16;;;;;;;4.17;1.67;;;7.10;97.00;;;;;;5033926;28;20559;-71
2024/01/28 10:38:45;;;;;;;2.40;1.40;;;7.20;96.30;;;;;;5034182;28;20898;-71
2024/01/28 10:41:15;;;;;;;4.40;1.43;;;7.20;97.10;;;;;;5033780;28;20523;-71
2024/01/28 10:43:57;;;;;;;3.67;1.27;;;7.50;97.00;;;;;;5031026;28;20436;-71
2024/01/28 10:46:39;;;;;;;2.37;1.30;;;7.60;96.00;;;;;;5021390;28;20416;-71
2024/01/28 10:49:07;;;;;;;4.40;1.30;;;7.60;95.40;;;;;;5033701;28;20421;-71
2024/01/28 10:51:35;;;;;;;3.27;1.30;;;7.60;95.90;;;;;;5033780;28;20420;-71
2024/01/28 10:54:03;;;;;;;2.97;1.50;;;7.70;95.30;;;;;;5033495;28;20432;-71
2024/01/28 10:56:30;;;;;;;3.47;1.17;;;7.90;96.00;;;;;;5033720;28;20437;-72
2024/01/28 10:58:57;;;;;;;2.77;1.60;;;7.90;95.60;;;;;;5033540;28;20429;-71
2024/01/28 11:01:24;;;;;;;2.83;1.40;;;8.00;96.10;;;;;;5027986;28;20468;-72
2024/01/28 11:03:50;;;;;;;8.10;1.27;;;8.00;95.30;;;;;;5033468;28;20933;-72
2024/01/28 11:06:17;;;;;;;5.73;1.40;;;8.10;95.30;;;;;;5033502;28;20463;-72
2024/01/28 11:08:43;;;;;;;2.50;1.23;;;8.10;95.50;;;;;;5033631;28;20243;-72
2024/01/28 11:11:09;;;;;;;1.60;1.00;;;8.40;94.90;;;;;;5033608;28;20424;-71
2024/01/28 11:13:34;;;;;;;1.30;0.73;;;8.50;94.10;;;;;;5033345;28;20421;-72
2024/01/28 11:16:00;;;;;;;1.53;0.97;;;8.90;94.10;;;;;;5033440;28;20508;-72
2024/01/28 11:18:29;;;;;;;1.20;0.57;;;8.50;93.90;;;;;;5032813;28;20182;-71
2024/01/28 11:20:55;;;;;;;1.70;0.77;;;8.60;94.20;;;;;;5033426;28;20184;-72
2024/01/28 11:23:20;;;;;;;2.13;1.07;;;8.60;94.80;;;;;;5033683;28;20981;-72
2024/01/28 11:25:46;;;;;;;3.80;1.20;;;8.60;94.10;;;;;;5033431;28;20190;-72
2024/01/28 11:28:14;;;;;;;4.40;1.27;;;9.10;93.10;;;;;;5033081;28;20192;-72
2024/01/28 11:30:40;;;;;;;1.30;0.90;;;9.00;94.10;;;;;;5032279;28;20482;-72
2024/01/28 11:33:15;;;;;;;2.07;0.70;;;9.30;92.80;;;;;;5032916;28;20425;-72
2024/01/28 11:35:44;;;;;;;2.43;0.83;;;9.30;92.00;;;;;;5033424;28;20256;-72
2024/01/28 11:38:15;;;;;;;1.90;0.97;;;9.40;92.20;;;;;;5032980;28;20425;-72
2024/01/28 11:40:47;;;;;;;3.83;1.50;;;9.40;91.90;;;;;;5032161;28;20981;-72
2024/01/28 11:43:13;;;;;;;1.90;0.80;;;9.60;91.30;;;;;;5036237;28;20792;-72
2024/01/28 11:45:39;;;;;;;2.13;1.07;;;9.20;91.70;;;;;;5039619;28;20451;-72
2024/01/28 11:48:06;;;;;;;2.97;1.40;;;9.20;92.20;;;;;;5032541;28;20429;-72
2024/01/28 11:50:31;;;;;;;1.93;1.00;;;9.40;92.40;;;;;;5032856;28;20183;-72
2024/01/28 11:52:57;;;;;;;3.60;1.30;;;9.50;92.60;;;;;;5032716;28;20433;-72
2024/01/28 11:55:22;;;;;;;4.30;1.63;;;9.70;92.00;;;;;;5032911;28;20640;-72
2024/01/28 11:57:48;;;;;;;2.23;1.03;;;9.90;91.60;;;;;;5032606;28;20186;-72
2024/01/28 12:00:15;;;;;;;3.20;1.53;;;10.10;90.60;;;;;;5032410;28;20307;-73
2024/01/28 12:02:41;;;;;;;1.60;0.77;;;10.30;89.50;;;;;;5031914;28;20464;-73
2024/01/28 12:05:08;;;;;;;2.53;1.20;;;10.40;89.40;;;;;;5032662;28;20504;-72
2024/01/28 12:07:36;;;;;;;1.77;1.10;;;10.60;90.00;;;;;;5032731;28;20412;-72
2024/01/28 12:10:05;;;;;;;4.07;1.60;;;10.50;89.60;;;;;;5032737;28;20417;-72
2024/01/28 12:12:34;;;;;;;3.47;1.40;;;10.60;88.50;;;;;;5032468;28;20433;-72
2024/01/28 12:15:01;;;;;;;2.20;1.20;;;10.60;88.40;;;;;;5032735;28;20417;-72
2024/01/28 12:17:26;;;;;;;5.10;1.13;;;10.40;88.90;;;;;;5032707;28;20413;-72
2024/01/28 12:19:53;;;;;;;1.97;1.20;;;10.30;89.80;;;;;;5032436;28;20563;-72
2024/01/28 12:22:18;;;;;;;1.40;0.83;;;10.20;90.20;;;;;;5032299;28;20217;-72
2024/01/28 12:24:45;;;;;;;1.90;1.10;;;10.20;90.50;;;;;;5032369;28;20832;-72
2024/01/28 12:27:11;;;;;;;1.80;1.00;;;10.30;90.60;;;;;;5031958;28;20174;-72
2024/01/28 12:29:36;;;;;;;2.90;0.93;;;10.30;89.90;;;;;;5031816;28;20591;-72
2024/01/28 12:32:02;;;;;;;2.03;1.20;;;10.20;90.00;;;;;;5031828;28;20543;-72
2024/01/28 12:34:28;;;;;;;2.60;1.40;;;10.20;90.50;;;;;;5031789;28;20832;-72
2024/01/28 12:36:53;;;;;;;1.50;0.90;;;10.20;90.90;;;;;;5032230;28;20205;-72
2024/01/28 12:39:19;;;;;;;1.83;0.97;;;10.30;90.90;;;;;;5031841;28;20594;-72
2024/01/28 12:41:44;;;;;;;2.13;0.83;;;10.30;91.30;;;;;;5032315;28;20678;-73